41AL weather

UAB Hospital/Gardendale Fed Heliport
Gardendale, Alabama, United States

Public forecast

Using degrees Fahrenheit for public forecast. Weather courtesy of forecast.io.

Closest aviation weather report (METAR) to UAB Hospital/Gardendale Fed Heliport

Closest report is Birmingham-Shuttlesworth International Airport, 6.1 nm (11.3 km) SSE. Retrieved 2019/10/15 02:53 UTC (26 minutes ago):

KBHM 150253Z 00000KT 10SM BKN047 BKN060 OVC150 18/14 A3013 RMK AO2 SLP199 T01780139 51008

Closest aviation forecast (TAF) to UAB Hospital/Gardendale Fed Heliport

Closest forecast is Birmingham-Shuttlesworth International Airport, 6.1 nm (11.3 km) SSE. Retrieved 2019-10-15 00:48 UTC (3 hours ago):

TAF KBHM 142340Z 1500/1524 VRB02KT P6SM BKN070 OVC250 FM151100 10002KT 6SM -RA BR OVC025 FM151500 13003KT 6SM -RA BR OVC015 FM151800 16004KT 5SM -RA BR OVC007